sensor_id;sensor_type;location;lat;lon;timestamp;temperature;humidity
5802;DHT22;2927;49.366;8.530;2022-09-17T00:01:09;11.50;99.90
5802;DHT22;2927;49.366;8.530;2022-09-17T00:03:38;11.50;99.90
5802;DHT22;2927;49.366;8.530;2022-09-17T00:06:09;11.50;99.90
5802;DHT22;2927;49.366;8.530;2022-09-17T00:08:37;11.50;99.90
5802;DHT22;2927;49.366;8.530;2022-09-17T00:13:32;11.50;1.00
5802;DHT22;2927;49.366;8.530;2022-09-17T00:15:58;11.50;1.00
5802;DHT22;2927;49.366;8.530;2022-09-17T00:18:23;11.50;41.10
5802;DHT22;2927;49.366;8.530;2022-09-17T00:20:49;11.50;25.20
5802;DHT22;2927;49.366;8.530;2022-09-17T00:23:14;11.50;1.00
5802;DHT22;2927;49.366;8.530;2022-09-17T00:25:42;11.40;1.00
5802;DHT22;2927;49.366;8.530;2022-09-17T00:28:09;11.20;99.90
5802;DHT22;2927;49.366;8.530;2022-09-17T00:30:34;11.30;99.90
5802;DHT22;2927;49.366;8.530;2022-09-17T00:33:03;11.20;99.90
5802;DHT22;2927;49.366;8.530;2022-09-17T00:35:29;11.20;1.00
5802;DHT22;2927;49.366;8.530;2022-09-17T00:37:54;11.30;99.90
5802;DHT22;2927;49.366;8.530;2022-09-17T00:40:20;11.30;99.90
5802;DHT22;2927;49.366;8.530;2022-09-17T00:42:46;11.30;99.90
5802;DHT22;2927;49.366;8.530;2022-09-17T00:45:12;11.40;1.00
5802;DHT22;2927;49.366;8.530;2022-09-17T00:47:43;11.50;99.90
5802;DHT22;2927;49.366;8.530;2022-09-17T00:50:43;11.40;1.00
5802;DHT22;2927;49.366;8.530;2022-09-17T00:53:12;11.50;1.00
5802;DHT22;2927;49.366;8.530;2022-09-17T00:55:52;11.50;99.90
5802;DHT22;2927;49.366;8.530;2022-09-17T00:58:21;11.50;1.00
5802;DHT22;2927;49.366;8.530;2022-09-17T01:00:47;11.50;99.90
5802;DHT22;2927;49.366;8.530;2022-09-17T01:03:13;11.40;99.90
5802;DHT22;2927;49.366;8.530;2022-09-17T01:11:35;11.10;99.90
5802;DHT22;2927;49.366;8.530;2022-09-17T01:16:54;11.00;1.00
5802;DHT22;2927;49.366;8.530;2022-09-17T01:22:37;11.00;1.00
5802;DHT22;2927;49.366;8.530;2022-09-17T01:27:49;10.90;99.90
5802;DHT22;2927;49.366;8.530;2022-09-17T01:31:11;10.80;1.00
5802;DHT22;2927;49.366;8.530;2022-09-17T01:33:42;10.80;1.00
5802;DHT22;2927;49.366;8.530;2022-09-17T01:36:38;10.80;1.00
5802;DHT22;2927;49.366;8.530;2022-09-17T01:44:25;10.90;1.00
5802;DHT22;2927;49.366;8.530;2022-09-17T01:47:02;10.90;1.00
5802;DHT22;2927;49.366;8.530;2022-09-17T01:49:31;10.90;1.00
5802;DHT22;2927;49.366;8.530;2022-09-17T01:52:00;10.80;1.00
5802;DHT22;2927;49.366;8.530;2022-09-17T01:54:45;10.80;1.00
5802;DHT22;2927;49.366;8.530;2022-09-17T01:57:26;10.70;1.00
5802;DHT22;2927;49.366;8.530;2022-09-17T02:00:17;10.70;1.00
5802;DHT22;2927;49.366;8.530;2022-09-17T02:02:59;10.70;1.00
5802;DHT22;2927;49.366;8.530;2022-09-17T02:05:34;10.70;1.00
5802;DHT22;2927;49.366;8.530;2022-09-17T02:08:09;10.70;1.00
5802;DHT22;2927;49.366;8.530;2022-09-17T02:10:41;10.70;1.00
5802;DHT22;2927;49.366;8.530;2022-09-17T02:13:31;10.70;1.00
5802;DHT22;2927;49.366;8.530;2022-09-17T02:16:08;10.70;1.00
5802;DHT22;2927;49.366;8.530;2022-09-17T02:18:49;10.70;1.00
5802;DHT22;2927;49.366;8.530;2022-09-17T02:21:29;10.60;1.00
5802;DHT22;2927;49.366;8.530;2022-09-17T02:26:38;10.50;1.00
5802;DHT22;2927;49.366;8.530;2022-09-17T02:29:08;10.50;1.00
5802;DHT22;2927;49.366;8.530;2022-09-17T02:31:37;10.40;1.00
5802;DHT22;2927;49.366;8.530;2022-09-17T02:34:06;10.40;1.00
5802;DHT22;2927;49.366;8.530;2022-09-17T02:36:31;10.40;1.00
5802;DHT22;2927;49.366;8.530;2022-09-17T02:39:00;10.30;1.00
5802;DHT22;2927;49.366;8.530;2022-09-17T02:41:50;10.30;1.00
5802;DHT22;2927;49.366;8.530;2022-09-17T02:47:22;10.30;1.00
5802;DHT22;2927;49.366;8.530;2022-09-17T02:50:15;10.20;1.00
5802;DHT22;2927;49.366;8.530;2022-09-17T02:55:52;10.10;1.00
5802;DHT22;2927;49.366;8.530;2022-09-17T02:58:25;10.10;1.00
5802;DHT22;2927;49.366;8.530;2022-09-17T03:00:54;10.10;1.00
5802;DHT22;2927;49.366;8.530;2022-09-17T03:03:35;10.00;1.00
5802;DHT22;2927;49.366;8.530;2022-09-17T03:06:02;10.00;1.00
5802;DHT22;2927;49.366;8.530;2022-09-17T03:08:32;10.00;1.00
5802;DHT22;2927;49.366;8.530;2022-09-17T03:10:58;10.00;1.00
5802;DHT22;2927;49.366;8.530;2022-09-17T03:13:24;10.00;1.00
5802;DHT22;2927;49.366;8.530;2022-09-17T03:15:50;10.00;1.00
5802;DHT22;2927;49.366;8.530;2022-09-17T03:18:15;9.90;1.00
5802;DHT22;2927;49.366;8.530;2022-09-17T03:20:41;10.00;1.00
5802;DHT22;2927;49.366;8.530;2022-09-17T03:23:07;10.00;1.00
5802;DHT22;2927;49.366;8.530;2022-09-17T03:25:32;10.00;1.00
5802;DHT22;2927;49.366;8.530;2022-09-17T03:27:58;9.90;1.00
5802;DHT22;2927;49.366;8.530;2022-09-17T03:30:23;9.90;1.00
5802;DHT22;2927;49.366;8.530;2022-09-17T03:32:49;9.80;1.00
5802;DHT22;2927;49.366;8.530;2022-09-17T03:35:14;9.80;1.00
5802;DHT22;2927;49.366;8.530;2022-09-17T03:37:40;9.80;1.00
5802;DHT22;2927;49.366;8.530;2022-09-17T03:40:06;9.80;1.00
5802;DHT22;2927;49.366;8.530;2022-09-17T03:42:32;9.90;1.00
5802;DHT22;2927;49.366;8.530;2022-09-17T03:44:57;9.90;1.00
5802;DHT22;2927;49.366;8.530;2022-09-17T03:47:23;9.90;1.00
5802;DHT22;2927;49.366;8.530;2022-09-17T03:49:48;9.90;1.00
5802;DHT22;2927;49.366;8.530;2022-09-17T03:52:14;10.00;1.00
5802;DHT22;2927;49.366;8.530;2022-09-17T03:54:39;10.00;1.00
5802;DHT22;2927;49.366;8.530;2022-09-17T03:57:05;10.00;1.00
5802;DHT22;2927;49.366;8.530;2022-09-17T03:59:30;10.00;1.00
5802;DHT22;2927;49.366;8.530;2022-09-17T04:01:56;10.10;1.00
5802;DHT22;2927;49.366;8.530;2022-09-17T04:04:22;10.20;1.00
5802;DHT22;2927;49.366;8.530;2022-09-17T04:06:47;10.10;1.00
5802;DHT22;2927;49.366;8.530;2022-09-17T04:09:13;10.10;1.00
5802;DHT22;2927;49.366;8.530;2022-09-17T04:11:39;10.00;1.00
5802;DHT22;2927;49.366;8.530;2022-09-17T04:14:04;10.00;1.00
5802;DHT22;2927;49.366;8.530;2022-09-17T04:16:30;10.00;1.00
5802;DHT22;2927;49.366;8.530;2022-09-17T04:18:55;10.10;1.00
5802;DHT22;2927;49.366;8.530;2022-09-17T04:21:21;10.00;1.00
5802;DHT22;2927;49.366;8.530;2022-09-17T04:23:46;10.00;1.00
5802;DHT22;2927;49.366;8.530;2022-09-17T04:26:12;10.10;1.00
5802;DHT22;2927;49.366;8.530;2022-09-17T04:28:38;10.10;1.00
5802;DHT22;2927;49.366;8.530;2022-09-17T04:31:03;10.10;1.00
5802;DHT22;2927;49.366;8.530;2022-09-17T04:33:29;10.10;1.00
5802;DHT22;2927;49.366;8.530;2022-09-17T04:35:54;10.20;1.00
5802;DHT22;2927;49.366;8.530;2022-09-17T04:38:20;10.20;1.00
5802;DHT22;2927;49.366;8.530;2022-09-17T04:40:46;10.30;1.00
5802;DHT22;2927;49.366;8.530;2022-09-17T04:43:12;10.20;1.00
5802;DHT22;2927;49.366;8.530;2022-09-17T04:45:38;10.30;1.00
5802;DHT22;2927;49.366;8.530;2022-09-17T04:48:04;10.30;1.00
5802;DHT22;2927;49.366;8.530;2022-09-17T04:50:29;10.30;1.00
5802;DHT22;2927;49.366;8.530;2022-09-17T04:52:55;10.30;1.00
5802;DHT22;2927;49.366;8.530;2022-09-17T04:55:21;10.30;1.00
5802;DHT22;2927;49.366;8.530;2022-09-17T04:57:48;10.40;1.00
5802;DHT22;2927;49.366;8.530;2022-09-17T05:00:14;10.40;1.00
5802;DHT22;2927;49.366;8.530;2022-09-17T05:02:44;10.30;1.00
5802;DHT22;2927;49.366;8.530;2022-09-17T05:05:11;10.20;1.00
5802;DHT22;2927;49.366;8.530;2022-09-17T05:07:40;10.20;1.00
5802;DHT22;2927;49.366;8.530;2022-09-17T05:10:06;10.30;1.00
5802;DHT22;2927;49.366;8.530;2022-09-17T05:12:32;10.40;1.00
5802;DHT22;2927;49.366;8.530;2022-09-17T05:14:58;10.40;99.90
5802;DHT22;2927;49.366;8.530;2022-09-17T05:17:23;10.40;1.00
5802;DHT22;2927;49.366;8.530;2022-09-17T05:19:49;10.40;1.00
5802;DHT22;2927;49.366;8.530;2022-09-17T05:22:15;10.40;1.00
5802;DHT22;2927;49.366;8.530;2022-09-17T05:24:40;10.40;1.00
5802;DHT22;2927;49.366;8.530;2022-09-17T05:27:06;10.50;1.00
5802;DHT22;2927;49.366;8.530;2022-09-17T05:29:32;10.60;1.00
5802;DHT22;2927;49.366;8.530;2022-09-17T05:31:57;10.60;1.00
5802;DHT22;2927;49.366;8.530;2022-09-17T05:34:23;10.60;1.00
5802;DHT22;2927;49.366;8.530;2022-09-17T05:36:51;10.70;1.00
5802;DHT22;2927;49.366;8.530;2022-09-17T05:39:16;10.70;1.00
5802;DHT22;2927;49.366;8.530;2022-09-17T05:41:42;10.70;1.00
5802;DHT22;2927;49.366;8.530;2022-09-17T05:44:08;10.80;1.00
5802;DHT22;2927;49.366;8.530;2022-09-17T05:46:34;10.90;1.00
5802;DHT22;2927;49.366;8.530;2022-09-17T05:48:59;10.90;1.00
5802;DHT22;2927;49.366;8.530;2022-09-17T05:51:25;10.90;1.00
5802;DHT22;2927;49.366;8.530;2022-09-17T05:53:50;10.90;1.00
5802;DHT22;2927;49.366;8.530;2022-09-17T05:56:18;10.90;1.00
5802;DHT22;2927;49.366;8.530;2022-09-17T05:58:43;10.90;1.00
5802;DHT22;2927;49.366;8.530;2022-09-17T06:01:09;10.90;1.00
5802;DHT22;2927;49.366;8.530;2022-09-17T06:03:40;11.00;1.00
5802;DHT22;2927;49.366;8.530;2022-09-17T06:06:06;11.00;1.00
5802;DHT22;2927;49.366;8.530;2022-09-17T06:08:32;11.10;1.00
5802;DHT22;2927;49.366;8.530;2022-09-17T06:11:03;11.10;1.00
5802;DHT22;2927;49.366;8.530;2022-09-17T06:13:29;11.20;1.00
5802;DHT22;2927;49.366;8.530;2022-09-17T06:15:55;11.20;1.00
5802;DHT22;2927;49.366;8.530;2022-09-17T06:18:21;11.20;1.00
5802;DHT22;2927;49.366;8.530;2022-09-17T06:21:00;11.30;1.00
5802;DHT22;2927;49.366;8.530;2022-09-17T06:23:27;11.30;1.00
5802;DHT22;2927;49.366;8.530;2022-09-17T06:25:57;11.40;1.00
5802;DHT22;2927;49.366;8.530;2022-09-17T06:28:23;11.40;1.00
5802;DHT22;2927;49.366;8.530;2022-09-17T06:30:49;11.50;1.00
5802;DHT22;2927;49.366;8.530;2022-09-17T06:33:22;11.60;1.00
5802;DHT22;2927;49.366;8.530;2022-09-17T06:35:48;11.80;1.00
5802;DHT22;2927;49.366;8.530;2022-09-17T06:38:13;11.90;1.00
5802;DHT22;2927;49.366;8.530;2022-09-17T06:40:39;12.10;1.00
5802;DHT22;2927;49.366;8.530;2022-09-17T06:43:05;12.20;99.90
5802;DHT22;2927;49.366;8.530;2022-09-17T06:45:30;12.20;1.00
5802;DHT22;2927;49.366;8.530;2022-09-17T06:47:56;12.20;1.00
5802;DHT22;2927;49.366;8.530;2022-09-17T06:50:22;12.20;1.00
5802;DHT22;2927;49.366;8.530;2022-09-17T06:52:49;12.30;1.00
5802;DHT22;2927;49.366;8.530;2022-09-17T06:55:15;12.20;99.90
5802;DHT22;2927;49.366;8.530;2022-09-17T06:57:41;11.90;1.00
5802;DHT22;2927;49.366;8.530;2022-09-17T07:00:07;11.80;1.00
5802;DHT22;2927;49.366;8.530;2022-09-17T07:02:33;11.60;99.90
5802;DHT22;2927;49.366;8.530;2022-09-17T07:04:59;11.50;99.90
5802;DHT22;2927;49.366;8.530;2022-09-17T07:07:25;11.30;1.00
5802;DHT22;2927;49.366;8.530;2022-09-17T07:09:50;11.30;1.00
5802;DHT22;2927;49.366;8.530;2022-09-17T07:12:18;11.50;99.90
5802;DHT22;2927;49.366;8.530;2022-09-17T07:14:43;11.50;1.00
5802;DHT22;2927;49.366;8.530;2022-09-17T07:17:09;11.40;62.50
5802;DHT22;2927;49.366;8.530;2022-09-17T07:19:35;11.60;99.90
5802;DHT22;2927;49.366;8.530;2022-09-17T07:22:03;11.90;1.00
5802;DHT22;2927;49.366;8.530;2022-09-17T07:24:28;12.10;1.00
5802;DHT22;2927;49.366;8.530;2022-09-17T07:26:54;12.50;1.00
5802;DHT22;2927;49.366;8.530;2022-09-17T07:29:20;12.60;99.90
5802;DHT22;2927;49.366;8.530;2022-09-17T07:31:47;12.40;1.00
5802;DHT22;2927;49.366;8.530;2022-09-17T07:34:13;12.30;1.00
5802;DHT22;2927;49.366;8.530;2022-09-17T07:36:39;12.30;99.90
5802;DHT22;2927;49.366;8.530;2022-09-17T07:39:04;12.20;1.00
5802;DHT22;2927;49.366;8.530;2022-09-17T07:41:30;12.10;1.00
5802;DHT22;2927;49.366;8.530;2022-09-17T07:43:56;12.40;99.90
5802;DHT22;2927;49.366;8.530;2022-09-17T07:46:22;12.60;1.00
5802;DHT22;2927;49.366;8.530;2022-09-17T07:48:48;12.80;1.00
5802;DHT22;2927;49.366;8.530;2022-09-17T07:51:16;12.50;1.00
5802;DHT22;2927;49.366;8.530;2022-09-17T07:53:41;12.50;99.90
5802;DHT22;2927;49.366;8.530;2022-09-17T07:56:07;12.40;99.90
5802;DHT22;2927;49.366;8.530;2022-09-17T07:58:34;12.40;99.90
5802;DHT22;2927;49.366;8.530;2022-09-17T08:01:09;12.40;99.90
5802;DHT22;2927;49.366;8.530;2022-09-17T08:03:36;12.40;99.90
5802;DHT22;2927;49.366;8.530;2022-09-17T08:06:03;12.40;99.90
5802;DHT22;2927;49.366;8.530;2022-09-17T08:08:31;12.40;1.00
5802;DHT22;2927;49.366;8.530;2022-09-17T08:11:02;12.50;1.00
5802;DHT22;2927;49.366;8.530;2022-09-17T08:13:28;12.70;1.00
5802;DHT22;2927;49.366;8.530;2022-09-17T08:15:59;12.90;1.00
5802;DHT22;2927;49.366;8.530;2022-09-17T08:18:25;13.00;1.00
5802;DHT22;2927;49.366;8.530;2022-09-17T08:20:54;13.30;1.00
5802;DHT22;2927;49.366;8.530;2022-09-17T08:23:20;13.30;1.00
5802;DHT22;2927;49.366;8.530;2022-09-17T08:29:01;13.40;1.00
5802;DHT22;2927;49.366;8.530;2022-09-17T08:31:27;13.20;76.80
5802;DHT22;2927;49.366;8.530;2022-09-17T08:33:54;13.30;99.90
5802;DHT22;2927;49.366;8.530;2022-09-17T08:36:20;13.50;1.00
5802;DHT22;2927;49.366;8.530;2022-09-17T08:38:50;13.80;1.00
5802;DHT22;2927;49.366;8.530;2022-09-17T08:44:19;13.50;1.00
5802;DHT22;2927;49.366;8.530;2022-09-17T08:46:49;13.20;1.00
5802;DHT22;2927;49.366;8.530;2022-09-17T08:49:31;13.30;99.90
5802;DHT22;2927;49.366;8.530;2022-09-17T09:00:52;13.90;65.70
5802;DHT22;2927;49.366;8.530;2022-09-17T09:03:27;14.00;1.00
5802;DHT22;2927;49.366;8.530;2022-09-17T09:05:57;13.80;99.90
5802;DHT22;2927;49.366;8.530;2022-09-17T09:08:32;14.00;1.00
5802;DHT22;2927;49.366;8.530;2022-09-17T09:11:03;14.10;1.00
5802;DHT22;2927;49.366;8.530;2022-09-17T09:13:41;14.10;99.90
5802;DHT22;2927;49.366;8.530;2022-09-17T09:18:39;14.20;1.00
5802;DHT22;2927;49.366;8.530;2022-09-17T09:21:26;14.40;1.00
5802;DHT22;2927;49.366;8.530;2022-09-17T09:23:58;14.40;99.90
5802;DHT22;2927;49.366;8.530;2022-09-17T09:27:13;14.40;1.00
5802;DHT22;2927;49.366;8.530;2022-09-17T09:29:41;14.50;1.00
5802;DHT22;2927;49.366;8.530;2022-09-17T09:35:21;14.30;5.30
5802;DHT22;2927;49.366;8.530;2022-09-17T09:40:59;14.70;1.00
5802;DHT22;2927;49.366;8.530;2022-09-17T09:44:01;15.00;99.90
5802;DHT22;2927;49.366;8.530;2022-09-17T09:49:21;14.10;1.00
5802;DHT22;2927;49.366;8.530;2022-09-17T10:02:54;14.70;99.90
5802;DHT22;2927;49.366;8.530;2022-09-17T10:05:20;15.20;99.90
5802;DHT22;2927;49.366;8.530;2022-09-17T10:07:46;15.50;1.00
5802;DHT22;2927;49.366;8.530;2022-09-17T10:10:11;15.60;1.00
5802;DHT22;2927;49.366;8.530;2022-09-17T10:12:37;15.90;1.00
5802;DHT22;2927;49.366;8.530;2022-09-17T10:15:25;16.30;1.00
5802;DHT22;2927;49.366;8.530;2022-09-17T10:20:35;16.80;99.90
5802;DHT22;2927;49.366;8.530;2022-09-17T10:23:05;16.90;99.90
5802;DHT22;2927;49.366;8.530;2022-09-17T10:25:32;16.60;1.00
5802;DHT22;2927;49.366;8.530;2022-09-17T10:28:02;16.00;1.00
5802;DHT22;2927;49.366;8.530;2022-09-17T10:30:29;16.40;46.80
5802;DHT22;2927;49.366;8.530;2022-09-17T10:33:21;16.50;1.00
5802;DHT22;2927;49.366;8.530;2022-09-17T10:36:05;16.20;1.00
5802;DHT22;2927;49.366;8.530;2022-09-17T10:38:50;16.10;67.90
5802;DHT22;2927;49.366;8.530;2022-09-17T10:41:17;16.10;1.80
5802;DHT22;2927;49.366;8.530;2022-09-17T10:43:43;15.70;5.70
5802;DHT22;2927;49.366;8.530;2022-09-17T10:46:14;15.90;28.60
5802;DHT22;2927;49.366;8.530;2022-09-17T10:48:44;16.10;5.90
5802;DHT22;2927;49.366;8.530;2022-09-17T10:51:19;16.10;1.00
5802;DHT22;2927;49.366;8.530;2022-09-17T10:56:33;16.40;1.00
5802;DHT22;2927;49.366;8.530;2022-09-17T10:59:22;16.60;1.00
5802;DHT22;2927;49.366;8.530;2022-09-17T11:02:21;16.90;1.00
5802;DHT22;2927;49.366;8.530;2022-09-17T11:07:49;16.70;1.00
5802;DHT22;2927;49.366;8.530;2022-09-17T11:10:29;16.50;1.00
5802;DHT22;2927;49.366;8.530;2022-09-17T11:13:28;16.30;1.00
5802;DHT22;2927;49.366;8.530;2022-09-17T11:21:37;15.50;91.90
5802;DHT22;2927;49.366;8.530;2022-09-17T11:24:29;15.80;45.80
5802;DHT22;2927;49.366;8.530;2022-09-17T11:30:00;16.00;1.00
5802;DHT22;2927;49.366;8.530;2022-09-17T11:35:26;15.60;1.00
5802;DHT22;2927;49.366;8.530;2022-09-17T11:38:00;15.50;1.00
5802;DHT22;2927;49.366;8.530;2022-09-17T11:43:16;15.30;1.00
5802;DHT22;2927;49.366;8.530;2022-09-17T11:48:31;15.70;1.00
5802;DHT22;2927;49.366;8.530;2022-09-17T11:51:26;15.40;1.00
5802;DHT22;2927;49.366;8.530;2022-09-17T11:54:05;15.50;1.00
5802;DHT22;2927;49.366;8.530;2022-09-17T11:56:43;15.70;1.00
5802;DHT22;2927;49.366;8.530;2022-09-17T12:01:55;16.00;1.00
5802;DHT22;2927;49.366;8.530;2022-09-17T12:04:31;15.70;1.00
5802;DHT22;2927;49.366;8.530;2022-09-17T12:09:47;15.30;99.90
5802;DHT22;2927;49.366;8.530;2022-09-17T12:12:17;15.60;18.70
5802;DHT22;2927;49.366;8.530;2022-09-17T12:14:55;15.90;1.00
5802;DHT22;2927;49.366;8.530;2022-09-17T12:17:30;16.20;1.00
5802;DHT22;2927;49.366;8.530;2022-09-17T12:20:06;16.50;1.00
5802;DHT22;2927;49.366;8.530;2022-09-17T12:22:38;16.60;1.00
5802;DHT22;2927;49.366;8.530;2022-09-17T12:25:09;16.40;1.00
5802;DHT22;2927;49.366;8.530;2022-09-17T12:28:02;16.30;1.00
5802;DHT22;2927;49.366;8.530;2022-09-17T12:30:50;16.10;1.00
5802;DHT22;2927;49.366;8.530;2022-09-17T12:36:13;15.90;1.00
5802;DHT22;2927;49.366;8.530;2022-09-17T12:38:51;15.80;1.00
5802;DHT22;2927;49.366;8.530;2022-09-17T12:49:52;15.40;1.00
5802;DHT22;2927;49.366;8.530;2022-09-17T12:52:35;15.80;1.00
5802;DHT22;2927;49.366;8.530;2022-09-17T12:57:54;16.40;1.00
5802;DHT22;2927;49.366;8.530;2022-09-17T13:00:21;16.50;1.00
5802;DHT22;2927;49.366;8.530;2022-09-17T13:02:51;16.50;1.00
5802;DHT22;2927;49.366;8.530;2022-09-17T13:13:52;17.00;1.00
5802;DHT22;2927;49.366;8.530;2022-09-17T13:16:27;17.00;1.00
5802;DHT22;2927;49.366;8.530;2022-09-17T13:19:02;17.10;1.00
5802;DHT22;2927;49.366;8.530;2022-09-17T13:21:39;17.10;1.00
5802;DHT22;2927;49.366;8.530;2022-09-17T13:24:16;17.10;1.00
5802;DHT22;2927;49.366;8.530;2022-09-17T13:26:43;17.20;1.00
5802;DHT22;2927;49.366;8.530;2022-09-17T13:29:10;17.00;1.00
5802;DHT22;2927;49.366;8.530;2022-09-17T13:34:27;17.40;1.00
5802;DHT22;2927;49.366;8.530;2022-09-17T13:37:03;17.50;1.00
5802;DHT22;2927;49.366;8.530;2022-09-17T13:42:22;17.30;1.00
5802;DHT22;2927;49.366;8.530;2022-09-17T13:45:17;17.20;1.00
5802;DHT22;2927;49.366;8.530;2022-09-17T13:47:49;17.30;1.00
5802;DHT22;2927;49.366;8.530;2022-09-17T13:50:32;17.40;1.00
5802;DHT22;2927;49.366;8.530;2022-09-17T13:55:55;17.40;1.00
5802;DHT22;2927;49.366;8.530;2022-09-17T13:58:30;17.30;1.00
5802;DHT22;2927;49.366;8.530;2022-09-17T14:00:59;16.90;1.00
5802;DHT22;2927;49.366;8.530;2022-09-17T14:03:53;16.90;1.00
5802;DHT22;2927;49.366;8.530;2022-09-17T14:21:31;17.90;1.00
5802;DHT22;2927;49.366;8.530;2022-09-17T14:24:00;17.90;1.00
5802;DHT22;2927;49.366;8.530;2022-09-17T14:31:58;17.20;1.00
5802;DHT22;2927;49.366;8.530;2022-09-17T14:34:25;16.70;1.00
5802;DHT22;2927;49.366;8.530;2022-09-17T14:36:52;16.80;1.00
5802;DHT22;2927;49.366;8.530;2022-09-17T14:39:27;16.90;1.00
5802;DHT22;2927;49.366;8.530;2022-09-17T14:41:53;17.00;1.00
5802;DHT22;2927;49.366;8.530;2022-09-17T14:44:27;16.70;1.00
5802;DHT22;2927;49.366;8.530;2022-09-17T14:47:13;16.80;1.00
5802;DHT22;2927;49.366;8.530;2022-09-17T14:49:39;16.80;1.00
5802;DHT22;2927;49.366;8.530;2022-09-17T14:52:28;16.90;1.00
5802;DHT22;2927;49.366;8.530;2022-09-17T14:55:24;17.00;1.00
5802;DHT22;2927;49.366;8.530;2022-09-17T14:57:55;17.10;1.00
5802;DHT22;2927;49.366;8.530;2022-09-17T15:00:32;16.80;1.00
5802;DHT22;2927;49.366;8.530;2022-09-17T15:02:59;16.90;1.00
5802;DHT22;2927;49.366;8.530;2022-09-17T15:11:03;16.90;1.00
5802;DHT22;2927;49.366;8.530;2022-09-17T15:13:40;16.70;1.00
5802;DHT22;2927;49.366;8.530;2022-09-17T15:16:18;16.50;1.00
5802;DHT22;2927;49.366;8.530;2022-09-17T15:18:49;16.40;1.00
5802;DHT22;2927;49.366;8.530;2022-09-17T15:21:43;16.00;1.00
5802;DHT22;2927;49.366;8.530;2022-09-17T15:24:27;16.10;1.00
5802;DHT22;2927;49.366;8.530;2022-09-17T15:26:57;16.20;1.00
5802;DHT22;2927;49.366;8.530;2022-09-17T15:29:27;16.20;1.00
5802;DHT22;2927;49.366;8.530;2022-09-17T15:31:53;16.20;1.00
5802;DHT22;2927;49.366;8.530;2022-09-17T15:34:19;16.10;1.00
5802;DHT22;2927;49.366;8.530;2022-09-17T15:39:40;15.90;1.00
5802;DHT22;2927;49.366;8.530;2022-09-17T15:42:17;15.70;1.00
5802;DHT22;2927;49.366;8.530;2022-09-17T15:44:43;15.70;1.00
5802;DHT22;2927;49.366;8.530;2022-09-17T15:50:23;15.50;1.00
5802;DHT22;2927;49.366;8.530;2022-09-17T15:52:56;15.80;1.00
5802;DHT22;2927;49.366;8.530;2022-09-17T15:56:15;16.50;1.00
5802;DHT22;2927;49.366;8.530;2022-09-17T15:58:33;17.20;1.00
5802;DHT22;2927;49.366;8.530;2022-09-17T16:08:52;16.80;1.00
5802;DHT22;2927;49.366;8.530;2022-09-17T16:11:21;16.20;1.00
5802;DHT22;2927;49.366;8.530;2022-09-17T16:13:51;15.70;1.00
5802;DHT22;2927;49.366;8.530;2022-09-17T16:16:22;15.70;1.00
5802;DHT22;2927;49.366;8.530;2022-09-17T16:18:49;15.70;1.00
5802;DHT22;2927;49.366;8.530;2022-09-17T16:21:16;15.50;1.00
5802;DHT22;2927;49.366;8.530;2022-09-17T16:23:42;15.50;30.80
5802;DHT22;2927;49.366;8.530;2022-09-17T16:26:16;15.40;93.80
5802;DHT22;2927;49.366;8.530;2022-09-17T16:28:43;15.30;99.90
5802;DHT22;2927;49.366;8.530;2022-09-17T16:31:13;15.10;99.90
5802;DHT22;2927;49.366;8.530;2022-09-17T16:33:39;15.20;99.90
5802;DHT22;2927;49.366;8.530;2022-09-17T16:36:05;15.10;1.00
5802;DHT22;2927;49.366;8.530;2022-09-17T16:38:31;15.00;1.00
5802;DHT22;2927;49.366;8.530;2022-09-17T16:40:56;14.90;1.00
5802;DHT22;2927;49.366;8.530;2022-09-17T16:43:22;14.90;1.00
5802;DHT22;2927;49.366;8.530;2022-09-17T16:46:02;15.00;1.00
5802;DHT22;2927;49.366;8.530;2022-09-17T16:48:28;14.90;1.00
5802;DHT22;2927;49.366;8.530;2022-09-17T16:50:54;14.70;1.00
5802;DHT22;2927;49.366;8.530;2022-09-17T16:53:19;14.70;1.00
5802;DHT22;2927;49.366;8.530;2022-09-17T16:55:45;14.60;1.00
5802;DHT22;2927;49.366;8.530;2022-09-17T16:58:10;14.60;1.00
5802;DHT22;2927;49.366;8.530;2022-09-17T17:00:36;14.70;99.90
5802;DHT22;2927;49.366;8.530;2022-09-17T17:03:02;14.70;99.90
5802;DHT22;2927;49.366;8.530;2022-09-17T17:05:29;14.70;72.40
5802;DHT22;2927;49.366;8.530;2022-09-17T17:07:55;14.60;99.90
5802;DHT22;2927;49.366;8.530;2022-09-17T17:10:22;14.40;99.90
5802;DHT22;2927;49.366;8.530;2022-09-17T17:12:48;14.20;1.00
5802;DHT22;2927;49.366;8.530;2022-09-17T17:15:13;14.00;1.00
5802;DHT22;2927;49.366;8.530;2022-09-17T17:17:39;13.80;99.90
5802;DHT22;2927;49.366;8.530;2022-09-17T17:20:06;13.60;1.00
5802;DHT22;2927;49.366;8.530;2022-09-17T17:22:37;13.50;99.90
5802;DHT22;2927;49.366;8.530;2022-09-17T17:25:04;13.50;1.00
5802;DHT22;2927;49.366;8.530;2022-09-17T17:27:31;13.40;99.90
5802;DHT22;2927;49.366;8.530;2022-09-17T17:29:56;13.30;1.00
5802;DHT22;2927;49.366;8.530;2022-09-17T17:32:22;13.20;99.90
5802;DHT22;2927;49.366;8.530;2022-09-17T17:34:48;13.20;1.00
5802;DHT22;2927;49.366;8.530;2022-09-17T17:37:15;13.10;1.00
5802;DHT22;2927;49.366;8.530;2022-09-17T17:39:41;13.10;1.00
5802;DHT22;2927;49.366;8.530;2022-09-17T17:42:06;13.00;1.00
5802;DHT22;2927;49.366;8.530;2022-09-17T17:44:33;13.00;1.00
5802;DHT22;2927;49.366;8.530;2022-09-17T17:46:58;13.00;1.00
5802;DHT22;2927;49.366;8.530;2022-09-17T17:49:24;13.10;1.00
5802;DHT22;2927;49.366;8.530;2022-09-17T17:51:49;13.10;1.00
5802;DHT22;2927;49.366;8.530;2022-09-17T17:54:17;13.10;1.00
5802;DHT22;2927;49.366;8.530;2022-09-17T17:56:42;13.10;1.00
5802;DHT22;2927;49.366;8.530;2022-09-17T17:59:08;13.00;1.00
5802;DHT22;2927;49.366;8.530;2022-09-17T18:01:33;13.10;99.90
5802;DHT22;2927;49.366;8.530;2022-09-17T18:04:04;13.00;99.90
5802;DHT22;2927;49.366;8.530;2022-09-17T18:06:32;13.00;1.00
5802;DHT22;2927;49.366;8.530;2022-09-17T18:08:58;13.00;1.00
5802;DHT22;2927;49.366;8.530;2022-09-17T18:11:24;12.90;1.00
5802;DHT22;2927;49.366;8.530;2022-09-17T18:13:52;12.90;1.00
5802;DHT22;2927;49.366;8.530;2022-09-17T18:16:18;12.90;1.00
5802;DHT22;2927;49.366;8.530;2022-09-17T18:18:44;12.90;1.00
5802;DHT22;2927;49.366;8.530;2022-09-17T18:21:19;12.80;1.00
5802;DHT22;2927;49.366;8.530;2022-09-17T18:23:45;12.80;1.00
5802;DHT22;2927;49.366;8.530;2022-09-17T18:26:13;12.70;99.90
5802;DHT22;2927;49.366;8.530;2022-09-17T18:28:39;12.70;1.00
5802;DHT22;2927;49.366;8.530;2022-09-17T18:31:12;12.70;99.90
5802;DHT22;2927;49.366;8.530;2022-09-17T18:33:42;12.60;1.00
5802;DHT22;2927;49.366;8.530;2022-09-17T18:36:08;12.60;1.00
5802;DHT22;2927;49.366;8.530;2022-09-17T18:38:35;12.50;1.00
5802;DHT22;2927;49.366;8.530;2022-09-17T18:41:05;12.40;99.90
5802;DHT22;2927;49.366;8.530;2022-09-17T18:43:34;12.40;1.00
5802;DHT22;2927;49.366;8.530;2022-09-17T18:46:00;12.40;1.00
5802;DHT22;2927;49.366;8.530;2022-09-17T18:48:26;12.30;1.00
5802;DHT22;2927;49.366;8.530;2022-09-17T18:50:55;12.30;1.00
5802;DHT22;2927;49.366;8.530;2022-09-17T18:53:23;12.30;1.00
5802;DHT22;2927;49.366;8.530;2022-09-17T18:55:49;12.40;1.00
5802;DHT22;2927;49.366;8.530;2022-09-17T18:58:14;12.40;1.00
5802;DHT22;2927;49.366;8.530;2022-09-17T19:00:40;12.30;1.00
5802;DHT22;2927;49.366;8.530;2022-09-17T19:03:06;12.30;1.00
5802;DHT22;2927;49.366;8.530;2022-09-17T19:05:31;12.30;1.00
5802;DHT22;2927;49.366;8.530;2022-09-17T19:07:57;12.30;1.00
5802;DHT22;2927;49.366;8.530;2022-09-17T19:10:23;12.30;1.00
5802;DHT22;2927;49.366;8.530;2022-09-17T19:12:50;12.30;3.00
5802;DHT22;2927;49.366;8.530;2022-09-17T19:15:16;12.30;99.90
5802;DHT22;2927;49.366;8.530;2022-09-17T19:17:41;12.30;99.90
5802;DHT22;2927;49.366;8.530;2022-09-17T19:20:07;12.30;1.00
5802;DHT22;2927;49.366;8.530;2022-09-17T19:22:33;12.30;1.00
5802;DHT22;2927;49.366;8.530;2022-09-17T19:24:58;12.30;1.00